sensor_id;sensor_type;location;lat;lon;timestamp;P1;durP1;ratioP1;P2;durP2;ratioP2
41333;SDS011;27078;46.428;6.256;2024-01-06T00:00:18;14.00;;;7.35;;
41333;SDS011;27078;46.428;6.256;2024-01-06T00:02:46;13.52;;;7.55;;
41333;SDS011;27078;46.428;6.256;2024-01-06T00:05:11;12.98;;;7.35;;
41333;SDS011;27078;46.428;6.256;2024-01-06T00:07:37;13.23;;;7.60;;
41333;SDS011;27078;46.428;6.256;2024-01-06T00:10:02;12.00;;;7.20;;
41333;SDS011;27078;46.428;6.256;2024-01-06T00:12:28;14.48;;;7.68;;
41333;SDS011;27078;46.428;6.256;2024-01-06T00:14:53;13.93;;;7.85;;
41333;SDS011;27078;46.428;6.256;2024-01-06T00:17:19;12.73;;;7.50;;
41333;SDS011;27078;46.428;6.256;2024-01-06T00:19:44;13.20;;;7.80;;
41333;SDS011;27078;46.428;6.256;2024-01-06T00:22:10;13.80;;;8.20;;
41333;SDS011;27078;46.428;6.256;2024-01-06T00:24:36;15.43;;;8.45;;
41333;SDS011;27078;46.428;6.256;2024-01-06T00:27:01;15.57;;;8.43;;
41333;SDS011;27078;46.428;6.256;2024-01-06T00:29:26;13.82;;;7.97;;
41333;SDS011;27078;46.428;6.256;2024-01-06T00:31:52;14.40;;;7.75;;
41333;SDS011;27078;46.428;6.256;2024-01-06T00:34:17;13.80;;;8.10;;
41333;SDS011;27078;46.428;6.256;2024-01-06T00:36:42;14.45;;;8.05;;
41333;SDS011;27078;46.428;6.256;2024-01-06T00:39:07;14.25;;;8.10;;
41333;SDS011;27078;46.428;6.256;2024-01-06T00:41:33;16.20;;;8.45;;
41333;SDS011;27078;46.428;6.256;2024-01-06T00:43:58;13.40;;;8.27;;
41333;SDS011;27078;46.428;6.256;2024-01-06T00:46:24;15.80;;;7.85;;
41333;SDS011;27078;46.428;6.256;2024-01-06T00:48:49;15.40;;;7.47;;
41333;SDS011;27078;46.428;6.256;2024-01-06T00:51:14;12.18;;;7.50;;
41333;SDS011;27078;46.428;6.256;2024-01-06T00:53:40;14.80;;;8.32;;
41333;SDS011;27078;46.428;6.256;2024-01-06T00:56:05;15.05;;;8.18;;
41333;SDS011;27078;46.428;6.256;2024-01-06T00:58:30;15.05;;;8.15;;
41333;SDS011;27078;46.428;6.256;2024-01-06T01:00:55;12.93;;;7.43;;
41333;SDS011;27078;46.428;6.256;2024-01-06T01:03:21;14.23;;;8.18;;
41333;SDS011;27078;46.428;6.256;2024-01-06T01:05:46;14.88;;;8.43;;
41333;SDS011;27078;46.428;6.256;2024-01-06T01:08:12;15.82;;;8.35;;
41333;SDS011;27078;46.428;6.256;2024-01-06T01:10:37;14.95;;;7.53;;
41333;SDS011;27078;46.428;6.256;2024-01-06T01:13:03;13.23;;;7.43;;
41333;SDS011;27078;46.428;6.256;2024-01-06T01:15:28;15.15;;;8.02;;
41333;SDS011;27078;46.428;6.256;2024-01-06T01:17:54;14.30;;;7.50;;
41333;SDS011;27078;46.428;6.256;2024-01-06T01:20:19;11.50;;;6.75;;
41333;SDS011;27078;46.428;6.256;2024-01-06T01:22:44;14.25;;;7.45;;
41333;SDS011;27078;46.428;6.256;2024-01-06T01:25:10;12.23;;;7.10;;
41333;SDS011;27078;46.428;6.256;2024-01-06T01:27:37;12.40;;;7.10;;
41333;SDS011;27078;46.428;6.256;2024-01-06T01:30:02;13.13;;;7.72;;
41333;SDS011;27078;46.428;6.256;2024-01-06T01:32:28;12.10;;;7.28;;
41333;SDS011;27078;46.428;6.256;2024-01-06T01:34:53;14.45;;;7.55;;
41333;SDS011;27078;46.428;6.256;2024-01-06T01:37:19;11.05;;;7.20;;
41333;SDS011;27078;46.428;6.256;2024-01-06T01:39:45;15.23;;;8.13;;
41333;SDS011;27078;46.428;6.256;2024-01-06T01:42:10;12.82;;;7.53;;
41333;SDS011;27078;46.428;6.256;2024-01-06T01:44:35;12.60;;;7.25;;
41333;SDS011;27078;46.428;6.256;2024-01-06T01:47:02;13.35;;;7.63;;
41333;SDS011;27078;46.428;6.256;2024-01-06T01:49:29;13.52;;;7.97;;
41333;SDS011;27078;46.428;6.256;2024-01-06T01:51:55;13.50;;;7.45;;
41333;SDS011;27078;46.428;6.256;2024-01-06T01:54:20;13.77;;;7.80;;
41333;SDS011;27078;46.428;6.256;2024-01-06T01:56:46;14.23;;;7.57;;
41333;SDS011;27078;46.428;6.256;2024-01-06T01:59:12;15.07;;;7.63;;
41333;SDS011;27078;46.428;6.256;2024-01-06T02:01:41;12.68;;;7.32;;
41333;SDS011;27078;46.428;6.256;2024-01-06T02:04:07;12.57;;;7.15;;
41333;SDS011;27078;46.428;6.256;2024-01-06T02:06:33;11.68;;;6.97;;
41333;SDS011;27078;46.428;6.256;2024-01-06T02:08:58;12.93;;;7.55;;
41333;SDS011;27078;46.428;6.256;2024-01-06T02:11:24;12.48;;;7.30;;
41333;SDS011;27078;46.428;6.256;2024-01-06T02:13:49;14.75;;;7.10;;
41333;SDS011;27078;46.428;6.256;2024-01-06T02:16:15;13.00;;;7.40;;
41333;SDS011;27078;46.428;6.256;2024-01-06T02:18:40;12.82;;;7.32;;
41333;SDS011;27078;46.428;6.256;2024-01-06T02:21:06;9.63;;;6.70;;
41333;SDS011;27078;46.428;6.256;2024-01-06T02:23:34;14.85;;;7.97;;
41333;SDS011;27078;46.428;6.256;2024-01-06T02:26:00;12.27;;;7.47;;
41333;SDS011;27078;46.428;6.256;2024-01-06T02:28:26;14.23;;;7.47;;
41333;SDS011;27078;46.428;6.256;2024-01-06T02:30:51;11.63;;;6.50;;
41333;SDS011;27078;46.428;6.256;2024-01-06T02:33:16;13.00;;;6.70;;
41333;SDS011;27078;46.428;6.256;2024-01-06T02:35:44;13.98;;;6.75;;
41333;SDS011;27078;46.428;6.256;2024-01-06T02:38:10;11.07;;;5.60;;
41333;SDS011;27078;46.428;6.256;2024-01-06T02:40:35;10.18;;;5.68;;
41333;SDS011;27078;46.428;6.256;2024-01-06T02:43:00;10.32;;;5.45;;
41333;SDS011;27078;46.428;6.256;2024-01-06T02:45:26;9.32;;;5.78;;
41333;SDS011;27078;46.428;6.256;2024-01-06T02:47:51;9.52;;;5.93;;
41333;SDS011;27078;46.428;6.256;2024-01-06T02:50:17;9.85;;;5.93;;
41333;SDS011;27078;46.428;6.256;2024-01-06T02:52:42;11.73;;;6.65;;
41333;SDS011;27078;46.428;6.256;2024-01-06T02:55:08;14.43;;;7.03;;
41333;SDS011;27078;46.428;6.256;2024-01-06T02:57:34;11.93;;;6.35;;
41333;SDS011;27078;46.428;6.256;2024-01-06T03:00:00;9.48;;;5.47;;
41333;SDS011;27078;46.428;6.256;2024-01-06T03:02:26;10.23;;;5.28;;
41333;SDS011;27078;46.428;6.256;2024-01-06T03:04:51;7.07;;;4.32;;
41333;SDS011;27078;46.428;6.256;2024-01-06T03:07:17;9.55;;;4.63;;
41333;SDS011;27078;46.428;6.256;2024-01-06T03:09:42;7.53;;;4.72;;
41333;SDS011;27078;46.428;6.256;2024-01-06T03:12:08;11.40;;;4.93;;
41333;SDS011;27078;46.428;6.256;2024-01-06T03:14:34;9.80;;;5.38;;
41333;SDS011;27078;46.428;6.256;2024-01-06T03:17:00;10.50;;;5.00;;
41333;SDS011;27078;46.428;6.256;2024-01-06T03:19:25;7.95;;;5.03;;
41333;SDS011;27078;46.428;6.256;2024-01-06T03:21:52;7.00;;;4.57;;
41333;SDS011;27078;46.428;6.256;2024-01-06T03:24:18;7.53;;;4.03;;
41333;SDS011;27078;46.428;6.256;2024-01-06T03:26:43;6.80;;;4.15;;
41333;SDS011;27078;46.428;6.256;2024-01-06T03:29:09;6.22;;;3.72;;
41333;SDS011;27078;46.428;6.256;2024-01-06T03:31:34;6.47;;;3.60;;
41333;SDS011;27078;46.428;6.256;2024-01-06T03:33:59;7.50;;;3.97;;
41333;SDS011;27078;46.428;6.256;2024-01-06T03:36:25;5.93;;;3.45;;
41333;SDS011;27078;46.428;6.256;2024-01-06T03:38:50;7.55;;;3.40;;
41333;SDS011;27078;46.428;6.256;2024-01-06T03:41:15;5.60;;;3.20;;
41333;SDS011;27078;46.428;6.256;2024-01-06T03:43:41;6.32;;;3.38;;
41333;SDS011;27078;46.428;6.256;2024-01-06T03:46:06;5.13;;;3.03;;
41333;SDS011;27078;46.428;6.256;2024-01-06T03:48:31;5.60;;;3.20;;
41333;SDS011;27078;46.428;6.256;2024-01-06T03:50:57;6.80;;;3.47;;
41333;SDS011;27078;46.428;6.256;2024-01-06T03:53:24;4.97;;;3.10;;
41333;SDS011;27078;46.428;6.256;2024-01-06T03:55:49;5.28;;;3.20;;
41333;SDS011;27078;46.428;6.256;2024-01-06T03:58:15;5.47;;;3.17;;
41333;SDS011;27078;46.428;6.256;2024-01-06T04:00:40;5.70;;;2.70;;
41333;SDS011;27078;46.428;6.256;2024-01-06T04:03:06;5.30;;;3.03;;
41333;SDS011;27078;46.428;6.256;2024-01-06T04:05:31;4.05;;;2.50;;
41333;SDS011;27078;46.428;6.256;2024-01-06T04:07:57;5.07;;;2.65;;
41333;SDS011;27078;46.428;6.256;2024-01-06T04:10:22;5.95;;;2.50;;
41333;SDS011;27078;46.428;6.256;2024-01-06T04:12:48;5.78;;;2.53;;
41333;SDS011;27078;46.428;6.256;2024-01-06T04:15:13;5.70;;;2.50;;
41333;SDS011;27078;46.428;6.256;2024-01-06T04:17:38;4.90;;;2.22;;
41333;SDS011;27078;46.428;6.256;2024-01-06T04:20:04;5.45;;;2.30;;
41333;SDS011;27078;46.428;6.256;2024-01-06T04:22:30;5.13;;;2.25;;
41333;SDS011;27078;46.428;6.256;2024-01-06T04:24:55;6.63;;;3.17;;
41333;SDS011;27078;46.428;6.256;2024-01-06T04:27:20;8.02;;;3.50;;
41333;SDS011;27078;46.428;6.256;2024-01-06T04:29:46;8.75;;;4.07;;
41333;SDS011;27078;46.428;6.256;2024-01-06T04:32:11;7.10;;;3.47;;
41333;SDS011;27078;46.428;6.256;2024-01-06T04:34:36;6.13;;;3.28;;
41333;SDS011;27078;46.428;6.256;2024-01-06T04:37:02;4.07;;;2.55;;
41333;SDS011;27078;46.428;6.256;2024-01-06T04:39:27;5.60;;;2.83;;
41333;SDS011;27078;46.428;6.256;2024-01-06T04:41:52;5.28;;;2.60;;
41333;SDS011;27078;46.428;6.256;2024-01-06T04:44:19;4.95;;;2.60;;
41333;SDS011;27078;46.428;6.256;2024-01-06T04:46:46;4.68;;;2.50;;
41333;SDS011;27078;46.428;6.256;2024-01-06T04:49:11;4.65;;;2.42;;
41333;SDS011;27078;46.428;6.256;2024-01-06T04:51:37;5.97;;;2.50;;
41333;SDS011;27078;46.428;6.256;2024-01-06T04:54:02;3.88;;;2.30;;
41333;SDS011;27078;46.428;6.256;2024-01-06T04:56:28;4.07;;;1.90;;
41333;SDS011;27078;46.428;6.256;2024-01-06T04:58:53;5.55;;;2.30;;
41333;SDS011;27078;46.428;6.256;2024-01-06T05:01:18;5.05;;;2.20;;
41333;SDS011;27078;46.428;6.256;2024-01-06T05:03:44;3.95;;;2.10;;
41333;SDS011;27078;46.428;6.256;2024-01-06T05:06:09;4.60;;;2.05;;
41333;SDS011;27078;46.428;6.256;2024-01-06T05:08:34;6.03;;;2.30;;
41333;SDS011;27078;46.428;6.256;2024-01-06T05:11:03;3.95;;;2.15;;
41333;SDS011;27078;46.428;6.256;2024-01-06T05:13:30;4.53;;;2.28;;
41333;SDS011;27078;46.428;6.256;2024-01-06T05:15:55;5.90;;;2.42;;
41333;SDS011;27078;46.428;6.256;2024-01-06T05:18:20;6.43;;;2.63;;
41333;SDS011;27078;46.428;6.256;2024-01-06T05:20:46;5.60;;;2.85;;
41333;SDS011;27078;46.428;6.256;2024-01-06T05:23:12;4.38;;;2.67;;
41333;SDS011;27078;46.428;6.256;2024-01-06T05:25:37;6.25;;;2.70;;
41333;SDS011;27078;46.428;6.256;2024-01-06T05:28:03;5.30;;;2.38;;
41333;SDS011;27078;46.428;6.256;2024-01-06T05:30:28;7.07;;;2.50;;
41333;SDS011;27078;46.428;6.256;2024-01-06T05:32:53;6.03;;;2.60;;
41333;SDS011;27078;46.428;6.256;2024-01-06T05:35:19;5.05;;;2.75;;
41333;SDS011;27078;46.428;6.256;2024-01-06T05:37:44;4.25;;;2.00;;
41333;SDS011;27078;46.428;6.256;2024-01-06T05:40:09;4.63;;;2.10;;
41333;SDS011;27078;46.428;6.256;2024-01-06T05:42:36;4.60;;;2.40;;
41333;SDS011;27078;46.428;6.256;2024-01-06T05:45:01;4.68;;;2.60;;
41333;SDS011;27078;46.428;6.256;2024-01-06T05:47:27;4.25;;;2.50;;
41333;SDS011;27078;46.428;6.256;2024-01-06T05:49:52;4.32;;;2.63;;
41333;SDS011;27078;46.428;6.256;2024-01-06T05:52:18;6.43;;;2.80;;
41333;SDS011;27078;46.428;6.256;2024-01-06T05:54:43;4.75;;;2.95;;
41333;SDS011;27078;46.428;6.256;2024-01-06T05:57:08;5.03;;;2.63;;
41333;SDS011;27078;46.428;6.256;2024-01-06T05:59:34;4.88;;;2.83;;
41333;SDS011;27078;46.428;6.256;2024-01-06T06:02:00;6.35;;;2.92;;
41333;SDS011;27078;46.428;6.256;2024-01-06T06:04:25;6.28;;;2.92;;
41333;SDS011;27078;46.428;6.256;2024-01-06T06:06:50;6.75;;;2.80;;
41333;SDS011;27078;46.428;6.256;2024-01-06T06:09:16;5.03;;;2.65;;
41333;SDS011;27078;46.428;6.256;2024-01-06T06:11:41;3.97;;;2.53;;
41333;SDS011;27078;46.428;6.256;2024-01-06T06:14:07;4.43;;;2.40;;
41333;SDS011;27078;46.428;6.256;2024-01-06T06:16:33;6.15;;;2.90;;
41333;SDS011;27078;46.428;6.256;2024-01-06T06:18:58;4.85;;;2.47;;
41333;SDS011;27078;46.428;6.256;2024-01-06T06:21:24;5.15;;;2.60;;
41333;SDS011;27078;46.428;6.256;2024-01-06T06:23:49;4.03;;;2.10;;
41333;SDS011;27078;46.428;6.256;2024-01-06T06:26:15;6.32;;;2.20;;
41333;SDS011;27078;46.428;6.256;2024-01-06T06:28:40;4.50;;;2.50;;
41333;SDS011;27078;46.428;6.256;2024-01-06T06:31:06;4.68;;;2.28;;
41333;SDS011;27078;46.428;6.256;2024-01-06T06:33:32;4.70;;;2.28;;
41333;SDS011;27078;46.428;6.256;2024-01-06T06:35:58;4.45;;;2.10;;
41333;SDS011;27078;46.428;6.256;2024-01-06T06:38:25;4.28;;;2.30;;
41333;SDS011;27078;46.428;6.256;2024-01-06T06:40:51;3.97;;;2.00;;
41333;SDS011;27078;46.428;6.256;2024-01-06T06:43:16;3.90;;;1.67;;
41333;SDS011;27078;46.428;6.256;2024-01-06T06:45:41;2.60;;;1.80;;
41333;SDS011;27078;46.428;6.256;2024-01-06T06:48:07;3.15;;;1.88;;
41333;SDS011;27078;46.428;6.256;2024-01-06T06:50:32;4.05;;;1.75;;
41333;SDS011;27078;46.428;6.256;2024-01-06T06:52:58;4.30;;;1.70;;
41333;SDS011;27078;46.428;6.256;2024-01-06T06:55:24;3.97;;;1.60;;
41333;SDS011;27078;46.428;6.256;2024-01-06T06:57:49;3.55;;;2.00;;
41333;SDS011;27078;46.428;6.256;2024-01-06T07:00:14;3.13;;;1.92;;
41333;SDS011;27078;46.428;6.256;2024-01-06T07:02:41;2.80;;;1.70;;
41333;SDS011;27078;46.428;6.256;2024-01-06T07:05:06;4.00;;;1.73;;
41333;SDS011;27078;46.428;6.256;2024-01-06T07:07:35;2.95;;;1.30;;
41333;SDS011;27078;46.428;6.256;2024-01-06T07:10:01;3.30;;;1.80;;
41333;SDS011;27078;46.428;6.256;2024-01-06T07:12:28;3.08;;;1.17;;
41333;SDS011;27078;46.428;6.256;2024-01-06T07:14:53;3.33;;;1.38;;
41333;SDS011;27078;46.428;6.256;2024-01-06T07:17:18;2.72;;;1.25;;
41333;SDS011;27078;46.428;6.256;2024-01-06T07:19:44;3.72;;;1.30;;
41333;SDS011;27078;46.428;6.256;2024-01-06T07:22:09;2.67;;;1.00;;
41333;SDS011;27078;46.428;6.256;2024-01-06T07:24:35;2.00;;;1.00;;
41333;SDS011;27078;46.428;6.256;2024-01-06T07:27:01;4.50;;;1.20;;
41333;SDS011;27078;46.428;6.256;2024-01-06T07:29:28;4.03;;;1.10;;
41333;SDS011;27078;46.428;6.256;2024-01-06T07:31:53;4.90;;;1.10;;
41333;SDS011;27078;46.428;6.256;2024-01-06T07:34:19;3.60;;;1.10;;
41333;SDS011;27078;46.428;6.256;2024-01-06T07:36:44;3.67;;;1.00;;
41333;SDS011;27078;46.428;6.256;2024-01-06T07:39:09;2.53;;;1.00;;
41333;SDS011;27078;46.428;6.256;2024-01-06T07:41:35;2.88;;;0.93;;
41333;SDS011;27078;46.428;6.256;2024-01-06T07:44:00;3.10;;;1.10;;
41333;SDS011;27078;46.428;6.256;2024-01-06T07:46:27;2.47;;;1.30;;
41333;SDS011;27078;46.428;6.256;2024-01-06T07:48:53;4.65;;;1.63;;
41333;SDS011;27078;46.428;6.256;2024-01-06T07:51:18;3.50;;;1.40;;
41333;SDS011;27078;46.428;6.256;2024-01-06T07:53:44;2.38;;;1.20;;
41333;SDS011;27078;46.428;6.256;2024-01-06T07:56:09;4.78;;;1.50;;
41333;SDS011;27078;46.428;6.256;2024-01-06T07:58:34;2.40;;;1.10;;
41333;SDS011;27078;46.428;6.256;2024-01-06T08:01:00;3.45;;;1.20;;
41333;SDS011;27078;46.428;6.256;2024-01-06T08:03:26;3.92;;;1.25;;
41333;SDS011;27078;46.428;6.256;2024-01-06T08:05:52;5.90;;;1.90;;
41333;SDS011;27078;46.428;6.256;2024-01-06T08:08:17;6.43;;;1.95;;
41333;SDS011;27078;46.428;6.256;2024-01-06T08:10:43;3.20;;;1.80;;
41333;SDS011;27078;46.428;6.256;2024-01-06T08:13:09;4.03;;;1.88;;
41333;SDS011;27078;46.428;6.256;2024-01-06T08:15:34;3.20;;;1.63;;
41333;SDS011;27078;46.428;6.256;2024-01-06T08:18:00;3.65;;;1.83;;
41333;SDS011;27078;46.428;6.256;2024-01-06T08:20:25;3.72;;;1.98;;
41333;SDS011;27078;46.428;6.256;2024-01-06T08:22:50;4.38;;;1.90;;
41333;SDS011;27078;46.428;6.256;2024-01-06T08:25:16;4.18;;;1.80;;
41333;SDS011;27078;46.428;6.256;2024-01-06T08:27:42;4.65;;;1.80;;
41333;SDS011;27078;46.428;6.256;2024-01-06T08:30:08;5.72;;;1.80;;
41333;SDS011;27078;46.428;6.256;2024-01-06T08:32:34;6.28;;;3.40;;
41333;SDS011;27078;46.428;6.256;2024-01-06T08:34:59;5.18;;;1.63;;
41333;SDS011;27078;46.428;6.256;2024-01-06T08:37:24;5.47;;;2.10;;
41333;SDS011;27078;46.428;6.256;2024-01-06T08:39:50;6.50;;;2.40;;
41333;SDS011;27078;46.428;6.256;2024-01-06T08:42:15;3.15;;;1.50;;
41333;SDS011;27078;46.428;6.256;2024-01-06T08:44:40;3.80;;;1.58;;
41333;SDS011;27078;46.428;6.256;2024-01-06T08:47:06;3.45;;;1.50;;
41333;SDS011;27078;46.428;6.256;2024-01-06T08:49:31;2.85;;;1.60;;
41333;SDS011;27078;46.428;6.256;2024-01-06T08:51:58;5.35;;;1.75;;
41333;SDS011;27078;46.428;6.256;2024-01-06T08:54:23;3.10;;;1.77;;
41333;SDS011;27078;46.428;6.256;2024-01-06T08:56:49;4.18;;;1.80;;
41333;SDS011;27078;46.428;6.256;2024-01-06T08:59:14;4.93;;;2.05;;
41333;SDS011;27078;46.428;6.256;2024-01-06T09:01:40;3.90;;;1.50;;
41333;SDS011;27078;46.428;6.256;2024-01-06T09:04:05;4.05;;;1.80;;
41333;SDS011;27078;46.428;6.256;2024-01-06T09:06:31;4.18;;;1.30;;
41333;SDS011;27078;46.428;6.256;2024-01-06T09:08:57;3.75;;;1.65;;
41333;SDS011;27078;46.428;6.256;2024-01-06T09:11:22;4.47;;;1.70;;
41333;SDS011;27078;46.428;6.256;2024-01-06T09:13:47;2.72;;;1.50;;
41333;SDS011;27078;46.428;6.256;2024-01-06T09:16:13;4.30;;;1.50;;
41333;SDS011;27078;46.428;6.256;2024-01-06T09:18:38;4.45;;;1.80;;
41333;SDS011;27078;46.428;6.256;2024-01-06T09:21:04;3.88;;;1.30;;
41333;SDS011;27078;46.428;6.256;2024-01-06T09:23:30;3.72;;;1.50;;
41333;SDS011;27078;46.428;6.256;2024-01-06T09:25:56;7.60;;;1.65;;
41333;SDS011;27078;46.428;6.256;2024-01-06T09:28:22;3.25;;;1.33;;
41333;SDS011;27078;46.428;6.256;2024-01-06T09:30:48;3.22;;;1.52;;
41333;SDS011;27078;46.428;6.256;2024-01-06T09:33:14;4.55;;;1.55;;
41333;SDS011;27078;46.428;6.256;2024-01-06T09:35:41;4.07;;;1.60;;
41333;SDS011;27078;46.428;6.256;2024-01-06T09:38:07;4.40;;;1.75;;
41333;SDS011;27078;46.428;6.256;2024-01-06T09:40:32;3.97;;;1.67;;
41333;SDS011;27078;46.428;6.256;2024-01-06T09:43:00;3.38;;;1.58;;
41333;SDS011;27078;46.428;6.256;2024-01-06T09:45:27;3.08;;;1.45;;
41333;SDS011;27078;46.428;6.256;2024-01-06T09:47:53;9.10;;;4.55;;
41333;SDS011;27078;46.428;6.256;2024-01-06T09:50:21;4.45;;;1.55;;
41333;SDS011;27078;46.428;6.256;2024-01-06T09:52:47;3.67;;;1.20;;
41333;SDS011;27078;46.428;6.256;2024-01-06T09:55:24;1.27;;;0.60;;
41333;SDS011;27078;46.428;6.256;2024-01-06T09:57:53;1.02;;;0.40;;
41333;SDS011;27078;46.428;6.256;2024-01-06T10:00:19;0.73;;;0.20;;
41333;SDS011;27078;46.428;6.256;2024-01-06T10:02:46;2.03;;;0.40;;
41333;SDS011;27078;46.428;6.256;2024-01-06T10:05:16;2.53;;;0.80;;
41333;SDS011;27078;46.428;6.256;2024-01-06T10:07:45;2.90;;;1.10;;
41333;SDS011;27078;46.428;6.256;2024-01-06T10:10:11;5.28;;;1.90;;
41333;SDS011;27078;46.428;6.256;2024-01-06T10:12:40;3.35;;;0.70;;
41333;SDS011;27078;46.428;6.256;2024-01-06T10:15:07;3.75;;;0.80;;
41333;SDS011;27078;46.428;6.256;2024-01-06T10:17:36;1.20;;;0.30;;
41333;SDS011;27078;46.428;6.256;2024-01-06T10:20:09;3.03;;;0.60;;
41333;SDS011;27078;46.428;6.256;2024-01-06T10:22:40;1.55;;;0.55;;
41333;SDS011;27078;46.428;6.256;2024-01-06T10:25:07;3.50;;;0.70;;
41333;SDS011;27078;46.428;6.256;2024-01-06T10:27:34;2.50;;;0.45;;
41333;SDS011;27078;46.428;6.256;2024-01-06T10:30:04;3.95;;;0.70;;
41333;SDS011;27078;46.428;6.256;2024-01-06T10:32:34;1.75;;;0.40;;
41333;SDS011;27078;46.428;6.256;2024-01-06T10:35:01;3.83;;;0.82;;
41333;SDS011;27078;46.428;6.256;2024-01-06T10:37:28;4.28;;;0.65;;
41333;SDS011;27078;46.428;6.256;2024-01-06T10:42:36;2.15;;;0.70;;
41333;SDS011;27078;46.428;6.256;2024-01-06T10:45:05;2.33;;;0.70;;
41333;SDS011;27078;46.428;6.256;2024-01-06T10:47:33;2.55;;;0.93;;
41333;SDS011;27078;46.428;6.256;2024-01-06T10:50:00;1.67;;;0.40;;
41333;SDS011;27078;46.428;6.256;2024-01-06T10:52:27;2.45;;;0.60;;
41333;SDS011;27078;46.428;6.256;2024-01-06T10:54:56;3.28;;;0.70;;
41333;SDS011;27078;46.428;6.256;2024-01-06T10:57:22;4.93;;;0.45;;
41333;SDS011;27078;46.428;6.256;2024-01-06T10:59:51;2.05;;;0.50;;
41333;SDS011;27078;46.428;6.256;2024-01-06T11:02:18;2.35;;;0.50;;
41333;SDS011;27078;46.428;6.256;2024-01-06T11:04:47;2.53;;;0.40;;
41333;SDS011;27078;46.428;6.256;2024-01-06T11:07:16;1.58;;;0.30;;
41333;SDS011;27078;46.428;6.256;2024-01-06T11:09:50;1.52;;;0.40;;
41333;SDS011;27078;46.428;6.256;2024-01-06T11:12:21;1.23;;;0.35;;
41333;SDS011;27078;46.428;6.256;2024-01-06T11:14:47;0.70;;;0.30;;
41333;SDS011;27078;46.428;6.256;2024-01-06T11:17:12;1.98;;;0.30;;
41333;SDS011;27078;46.428;6.256;2024-01-06T11:24:47;1.75;;;0.28;;
41333;SDS011;27078;46.428;6.256;2024-01-06T11:27:20;3.08;;;0.30;;
41333;SDS011;27078;46.428;6.256;2024-01-06T11:29:51;2.38;;;0.30;;
41333;SDS011;27078;46.428;6.256;2024-01-06T11:32:28;1.30;;;0.30;;
41333;SDS011;27078;46.428;6.256;2024-01-06T11:34:55;2.08;;;0.30;;
41333;SDS011;27078;46.428;6.256;2024-01-06T11:42:39;0.63;;;0.22;;
41333;SDS011;27078;46.428;6.256;2024-01-06T11:45:06;0.90;;;0.22;;
41333;SDS011;27078;46.428;6.256;2024-01-06T11:47:33;0.60;;;0.20;;
41333;SDS011;27078;46.428;6.256;2024-01-06T11:49:59;0.60;;;0.20;;
41333;SDS011;27078;46.428;6.256;2024-01-06T11:52:26;0.70;;;0.20;;
41333;SDS011;27078;46.428;6.256;2024-01-06T11:54:52;0.65;;;0.20;;
41333;SDS011;27078;46.428;6.256;2024-01-06T11:57:19;1.27;;;0.15;;
41333;SDS011;27078;46.428;6.256;2024-01-06T11:59:45;0.43;;;0.17;;
41333;SDS011;27078;46.428;6.256;2024-01-06T12:02:11;2.10;;;0.30;;
41333;SDS011;27078;46.428;6.256;2024-01-06T12:04:38;1.58;;;0.25;;
41333;SDS011;27078;46.428;6.256;2024-01-06T12:07:08;1.00;;;0.20;;
41333;SDS011;27078;46.428;6.256;2024-01-06T12:09:34;1.52;;;0.20;;
41333;SDS011;27078;46.428;6.256;2024-01-06T12:12:01;0.43;;;0.10;;
41333;SDS011;27078;46.428;6.256;2024-01-06T12:14:27;1.67;;;0.20;;
41333;SDS011;27078;46.428;6.256;2024-01-06T12:16:53;0.40;;;0.10;;
41333;SDS011;27078;46.428;6.256;2024-01-06T12:19:20;0.60;;;0.17;;
41333;SDS011;27078;46.428;6.256;2024-01-06T12:21:45;0.50;;;0.20;;
41333;SDS011;27078;46.428;6.256;2024-01-06T12:24:18;0.20;;;0.10;;
41333;SDS011;27078;46.428;6.256;2024-01-06T12:26:46;0.40;;;0.13;;
41333;SDS011;27078;46.428;6.256;2024-01-06T12:29:13;0.05;;;0.05;;
41333;SDS011;27078;46.428;6.256;2024-01-06T12:31:39;0.28;;;0.20;;
41333;SDS011;27078;46.428;6.256;2024-01-06T12:34:05;0.38;;;0.10;;
41333;SDS011;27078;46.428;6.256;2024-01-06T12:36:33;0.45;;;0.10;;
41333;SDS011;27078;46.428;6.256;2024-01-06T12:39:03;0.73;;;0.20;;
41333;SDS011;27078;46.428;6.256;2024-01-06T12:41:29;1.88;;;0.68;;
41333;SDS011;27078;46.428;6.256;2024-01-06T12:43:54;1.00;;;0.30;;
41333;SDS011;27078;46.428;6.256;2024-01-06T12:46:20;0.30;;;0.10;;
41333;SDS011;27078;46.428;6.256;2024-01-06T12:48:45;0.45;;;0.20;;
41333;SDS011;27078;46.428;6.256;2024-01-06T12:51:11;0.35;;;0.20;;
41333;SDS011;27078;46.428;6.256;2024-01-06T12:53:36;0.20;;;0.10;;
41333;SDS011;27078;46.428;6.256;2024-01-06T12:56:02;3.80;;;1.40;;
41333;SDS011;27078;46.428;6.256;2024-01-06T12:58:27;1.08;;;0.40;;
41333;SDS011;27078;46.428;6.256;2024-01-06T13:00:52;0.80;;;0.30;;
41333;SDS011;27078;46.428;6.256;2024-01-06T13:03:18;8.95;;;3.88;;
41333;SDS011;27078;46.428;6.256;2024-01-06T13:05:43;3.28;;;1.30;;
41333;SDS011;27078;46.428;6.256;2024-01-06T13:08:09;0.93;;;0.30;;
41333;SDS011;27078;46.428;6.256;2024-01-06T13:10:35;0.30;;;0.20;;
41333;SDS011;27078;46.428;6.256;2024-01-06T13:13:01;1.23;;;0.30;;
41333;SDS011;27078;46.428;6.256;2024-01-06T13:15:26;0.90;;;0.22;;
41333;SDS011;27078;46.428;6.256;2024-01-06T13:17:52;0.65;;;0.20;;
41333;SDS011;27078;46.428;6.256;2024-01-06T13:20:17;0.28;;;0.20;;
41333;SDS011;27078;46.428;6.256;2024-01-06T13:22:43;0.57;;;0.20;;
41333;SDS011;27078;46.428;6.256;2024-01-06T13:25:08;0.70;;;0.30;;
41333;SDS011;27078;46.428;6.256;2024-01-06T13:27:35;0.73;;;0.30;;
41333;SDS011;27078;46.428;6.256;2024-01-06T13:30:00;0.63;;;0.30;;
41333;SDS011;27078;46.428;6.256;2024-01-06T13:32:25;0.30;;;0.20;;
41333;SDS011;27078;46.428;6.256;2024-01-06T13:34:52;0.70;;;0.20;;
41333;SDS011;27078;46.428;6.256;2024-01-06T13:37:20;1.00;;;0.30;;
41333;SDS011;27078;46.428;6.256;2024-01-06T13:39:47;0.40;;;0.20;;
41333;SDS011;27078;46.428;6.256;2024-01-06T13:42:13;1.40;;;0.20;;
41333;SDS011;27078;46.428;6.256;2024-01-06T13:44:38;0.47;;;0.20;;
41333;SDS011;27078;46.428;6.256;2024-01-06T13:47:04;1.30;;;0.35;;
41333;SDS011;27078;46.428;6.256;2024-01-06T13:49:30;17.77;;;6.20;;
41333;SDS011;27078;46.428;6.256;2024-01-06T13:51:55;2.58;;;0.45;;
41333;SDS011;27078;46.428;6.256;2024-01-06T13:54:21;4.13;;;1.33;;
41333;SDS011;27078;46.428;6.256;2024-01-06T13:56:46;0.88;;;0.50;;
41333;SDS011;27078;46.428;6.256;2024-01-06T13:59:11;6.45;;;1.90;;
41333;SDS011;27078;46.428;6.256;2024-01-06T14:01:37;77.43;;;23.67;;
41333;SDS011;27078;46.428;6.256;2024-01-06T14:04:03;2.40;;;0.88;;
41333;SDS011;27078;46.428;6.256;2024-01-06T14:06:30;1.30;;;0.55;;
41333;SDS011;27078;46.428;6.256;2024-01-06T14:08:56;0.70;;;0.35;;
41333;SDS011;27078;46.428;6.256;2024-01-06T14:11:22;39.40;;;12.35;;
41333;SDS011;27078;46.428;6.256;2024-01-06T14:13:48;1.63;;;0.85;;
41333;SDS011;27078;46.428;6.256;2024-01-06T14:16:14;7.80;;;2.60;;
41333;SDS011;27078;46.428;6.256;2024-01-06T14:18:40;0.85;;;0.40;;
41333;SDS011;27078;46.428;6.256;2024-01-06T14:21:07;20.42;;;6.25;;
41333;SDS011;27078;46.428;6.256;2024-01-06T14:23:34;26.40;;;8.18;;
41333;SDS011;27078;46.428;6.256;2024-01-06T14:25:59;15.50;;;4.55;;
41333;SDS011;27078;46.428;6.256;2024-01-06T14:28:24;1.48;;;0.57;;
41333;SDS011;27078;46.428;6.256;2024-01-06T14:30:50;0.65;;;0.30;;
41333;SDS011;27078;46.428;6.256;2024-01-06T14:33:16;0.95;;;0.40;;
41333;SDS011;27078;46.428;6.256;2024-01-06T14:35:43;6.00;;;1.65;;
41333;SDS011;27078;46.428;6.256;2024-01-06T14:38:10;11.60;;;3.60;;
41333;SDS011;27078;46.428;6.256;2024-01-06T14:40:36;13.95;;;4.68;;
41333;SDS011;27078;46.428;6.256;2024-01-06T14:43:01;1.27;;;0.63;;
41333;SDS011;27078;46.428;6.256;2024-01-06T14:45:28;8.55;;;2.67;;
41333;SDS011;27078;46.428;6.256;2024-01-06T14:47:54;11.98;;;3.55;;
41333;SDS011;27078;46.428;6.256;2024-01-06T14:50:19;18.70;;;5.75;;